Time;durP1;ratioP1;P1;durP2;ratioP2;P2;SDS_P1;SDS_P2;PMS_P1;PMS_P2;Temp;Humidity;BMP_temperature;BMP_pressure;BME280_temperature;BME280_humidity;BME280_pressure;Samples;Min_cycle;Max_cycle;Signal;HPM_P1;HPM_P2
2023/06/18 00:00:38;;;;;;;19.75;7.72;;;;;;;19.77;58.40;101127.19;5066491;28;20032;-74
2023/06/18 00:03:03;;;;;;;20.40;7.93;;;;;;;19.73;57.59;101132.13;5070720;28;20094;-74
2023/06/18 00:05:28;;;;;;;23.40;7.38;;;;;;;19.69;59.30;101130.78;5067027;28;20028;-74
2023/06/18 00:07:54;;;;;;;19.65;8.02;;;;;;;19.63;60.74;101125.09;5060551;28;20032;-74
2023/06/18 00:10:19;;;;;;;18.17;7.47;;;;;;;19.60;59.49;101128.16;5061203;28;20047;-74
2023/06/18 00:12:44;;;;;;;18.67;7.75;;;;;;;19.53;59.26;101125.22;5070369;28;20473;-75
2023/06/18 00:15:10;;;;;;;18.63;8.02;;;;;;;19.48;59.58;101125.72;5071946;28;20028;-75
2023/06/18 00:17:35;;;;;;;18.45;7.60;;;;;;;19.45;60.17;101128.78;5067915;28;20025;-74
2023/06/18 00:20:01;;;;;;;20.00;8.10;;;;;;;19.41;60.60;101124.69;5071406;28;20040;-75
2023/06/18 00:22:26;;;;;;;20.38;8.52;;;;;;;19.43;59.64;101117.22;5061158;28;20060;-74
2023/06/18 00:24:52;;;;;;;20.00;7.40;;;;;;;19.47;60.32;101123.16;5068608;28;20040;-74
2023/06/18 00:27:20;;;;;;;19.63;8.07;;;;;;;19.45;61.11;101117.88;5048352;28;20033;-74
2023/06/18 00:29:47;;;;;;;18.90;8.05;;;;;;;19.43;61.19;101111.75;5061237;28;20021;-74
2023/06/18 00:32:13;;;;;;;18.90;8.00;;;;;;;19.45;61.78;101117.03;5070336;28;20112;-74
2023/06/18 00:34:41;;;;;;;20.23;8.43;;;;;;;19.45;59.77;101114.31;5062700;28;20402;-74
2023/06/18 00:37:09;;;;;;;20.17;8.05;;;;;;;19.46;61.19;101116.00;5043131;28;20018;-74
2023/06/18 00:39:36;;;;;;;18.67;8.13;;;;;;;19.44;61.21;101113.44;5064486;28;20024;-75
2023/06/18 00:42:01;;;;;;;18.23;8.50;;;;;;;19.43;61.20;101105.44;5062778;28;20050;-75
2023/06/18 00:44:26;;;;;;;18.20;8.02;;;;;;;19.42;61.20;101106.47;5065074;28;20445;-75
2023/06/18 00:46:56;;;;;;;20.08;8.95;;;;;;;19.38;60.30;101101.31;5061643;28;20120;-75
2023/06/18 00:49:22;;;;;;;18.45;7.75;;;;;;;19.37;60.84;101096.03;5063082;28;20138;-75
2023/06/18 00:51:48;;;;;;;19.13;8.15;;;;;;;19.35;60.78;101101.66;5054319;28;20039;-75
2023/06/18 00:54:16;;;;;;;20.42;8.45;;;;;;;19.32;62.87;101101.97;5071561;28;20025;-75
2023/06/18 00:56:50;;;;;;;22.50;9.52;;;;;;;19.30;60.93;101101.31;5061617;28;20036;-75
2023/06/18 00:59:23;;;;;;;19.10;8.15;;;;;;;19.24;62.46;101087.47;5068303;28;20031;-75
2023/06/18 01:01:53;;;;;;;21.05;8.73;;;;;;;19.18;62.52;101092.56;5055875;28;20036;-74
2023/06/18 01:04:20;;;;;;;21.58;9.32;;;;;;;19.15;64.29;101090.19;5049525;28;20025;-74
2023/06/18 01:06:52;;;;;;;18.15;8.48;;;;;;;19.12;63.62;101081.47;5067716;28;20513;-75
2023/06/18 01:09:22;;;;;;;18.42;8.75;;;;;;;19.08;62.58;101083.66;5074659;28;20025;-74
2023/06/18 01:11:52;;;;;;;19.42;8.80;;;;;;;19.03;63.36;101086.00;5067833;28;20112;-74
2023/06/18 01:14:22;;;;;;;20.02;9.00;;;;;;;18.99;63.53;101081.91;5063247;28;20049;-74
2023/06/18 01:16:49;;;;;;;18.85;8.68;;;;;;;18.93;63.50;101091.59;5066161;28;20108;-75
2023/06/18 01:19:38;;;;;;;17.48;7.55;;;;;;;18.93;63.67;101088.00;5070352;28;20107;-75
2023/06/18 01:22:23;;;;;;;20.98;8.80;;;;;;;18.88;64.12;101074.88;5067035;28;20048;-75
2023/06/18 01:24:54;;;;;;;20.27;7.75;;;;;;;18.82;63.56;101076.34;5058274;28;20128;-74
2023/06/18 01:27:21;;;;;;;18.77;7.90;;;;;;;18.80;63.30;101075.66;5067145;28;20035;-75
2023/06/18 01:29:50;;;;;;;19.92;9.20;;;;;;;18.75;64.05;101082.59;5066544;28;20033;-75
2023/06/18 01:32:15;;;;;;;19.13;8.63;;;;;;;18.68;64.03;101077.78;5064522;28;20112;-75
2023/06/18 01:34:42;;;;;;;22.17;8.70;;;;;;;18.66;65.21;101081.69;5067284;28;20036;-75
2023/06/18 01:37:24;;;;;;;19.25;8.73;;;;;;;18.61;64.42;101071.28;5051570;28;20016;-74
2023/06/18 01:40:05;;;;;;;18.80;8.07;;;;;;;18.59;64.03;101076.00;5064210;28;20481;-75
2023/06/18 01:42:35;;;;;;;20.33;8.60;;;;;;;18.52;66.00;101064.94;5061827;28;20374;-75
2023/06/18 01:45:14;;;;;;;20.10;8.90;;;;;;;18.45;66.69;101069.28;5066383;28;20111;-75
2023/06/18 01:47:42;;;;;;;20.55;9.13;;;;;;;18.38;67.37;101061.94;5055576;28;20072;-75
2023/06/18 01:50:12;;;;;;;20.55;9.68;;;;;;;18.30;67.14;101057.25;5071822;28;20029;-75
2023/06/18 01:52:41;;;;;;;21.63;9.98;;;;;;;18.24;67.44;101068.78;5066227;28;20031;-74
2023/06/18 01:55:06;;;;;;;20.38;9.55;;;;;;;18.18;67.45;101067.53;5066660;28;20055;-75
2023/06/18 01:57:33;;;;;;;20.52;9.15;;;;;;;18.10;67.55;101065.59;5064712;28;20087;-75
2023/06/18 01:59:58;;;;;;;20.83;9.57;;;;;;;18.05;68.24;101062.50;5071306;28;20441;-74
2023/06/18 02:02:23;;;;;;;19.67;9.45;;;;;;;18.01;68.32;101063.84;5062907;28;20028;-74
2023/06/18 02:04:49;;;;;;;20.15;8.48;;;;;;;17.95;68.66;101059.00;5060225;28;20033;-75
2023/06/18 02:07:15;;;;;;;20.25;8.90;;;;;;;17.91;67.98;101055.75;5062787;28;20029;-74
2023/06/18 02:09:40;;;;;;;21.48;9.35;;;;;;;17.87;69.17;101059.75;5068582;28;20104;-74
2023/06/18 02:12:06;;;;;;;22.00;9.23;;;;;;;17.80;69.48;101051.38;5070284;28;20033;-75
2023/06/18 02:14:32;;;;;;;19.90;8.90;;;;;;;17.76;69.56;101044.53;5069955;28;20025;-74
2023/06/18 02:16:59;;;;;;;20.58;9.27;;;;;;;17.71;70.73;101041.41;5070636;28;20025;-74
2023/06/18 02:19:24;;;;;;;23.05;9.65;;;;;;;17.64;71.14;101043.91;5068949;28;20092;-74
2023/06/18 02:21:49;;;;;;;20.23;9.65;;;;;;;17.59;71.27;101043.50;5069757;28;20060;-74
2023/06/18 02:24:15;;;;;;;19.85;9.20;;;;;;;17.56;70.97;101043.81;5072723;28;20035;-74
2023/06/18 02:26:41;;;;;;;22.42;10.23;;;;;;;17.52;71.85;101047.84;5072347;28;20532;-74
2023/06/18 02:29:07;;;;;;;20.63;10.18;;;;;;;17.47;72.54;101044.75;5065896;28;20048;-74
2023/06/18 02:31:32;;;;;;;24.15;9.23;;;;;;;17.42;73.03;101049.75;5070048;28;20040;-75
2023/06/18 02:33:57;;;;;;;22.83;9.68;;;;;;;17.38;72.77;101043.78;5054407;28;20476;-74
2023/06/18 02:36:23;;;;;;;22.20;10.10;;;;;;;17.32;73.05;101041.69;5051835;28;20108;-74
2023/06/18 02:38:48;;;;;;;22.23;10.10;;;;;;;17.27;73.00;101035.84;5054662;28;20043;-75
2023/06/18 02:41:13;;;;;;;21.60;9.95;;;;;;;17.23;73.00;101031.72;5052625;28;20026;-74
2023/06/18 02:43:39;;;;;;;22.35;10.93;;;;;;;17.16;73.23;101033.34;5084627;28;20024;-75
2023/06/18 02:46:04;;;;;;;21.75;10.02;;;;;;;17.10;74.11;101035.66;5055728;28;20032;-74
2023/06/18 02:48:29;;;;;;;22.10;11.10;;;;;;;17.09;74.14;101039.38;5064270;28;20021;-74
2023/06/18 02:50:55;;;;;;;21.20;10.82;;;;;;;17.07;74.36;101037.81;5066515;28;20066;-74
2023/06/18 02:53:20;;;;;;;22.08;11.27;;;;;;;17.03;74.59;101039.09;5063719;28;20035;-74
2023/06/18 02:55:45;;;;;;;21.73;11.70;;;;;;;17.00;74.52;101040.28;5068985;28;20037;-75
2023/06/18 02:58:20;;;;;;;20.85;11.50;;;;;;;16.99;73.45;101035.84;5047169;28;20374;-74
2023/06/18 03:00:45;;;;;;;23.23;11.00;;;;;;;16.94;74.46;101027.28;5068116;28;20037;-74
2023/06/18 03:03:14;;;;;;;22.05;11.57;;;;;;;16.90;74.26;101037.59;5055019;28;20083;-74
2023/06/18 03:05:39;;;;;;;23.90;11.25;;;;;;;16.87;74.93;101031.59;5073189;28;20052;-74
2023/06/18 03:08:06;;;;;;;23.98;11.73;;;;;;;16.82;75.37;101039.31;5059388;28;20072;-74
2023/06/18 03:10:31;;;;;;;23.10;10.82;;;;;;;16.78;75.78;101045.03;5066836;28;20028;-74
2023/06/18 03:12:57;;;;;;;24.33;11.38;;;;;;;16.75;75.93;101039.03;5053958;28;20029;-74
2023/06/18 03:15:22;;;;;;;23.20;12.13;;;;;;;16.70;76.37;101042.19;5064834;28;20036;-74
2023/06/18 03:17:47;;;;;;;23.10;12.07;;;;;;;16.69;77.01;101039.63;5056927;28;20135;-74
2023/06/18 03:20:12;;;;;;;22.42;11.15;;;;;;;16.69;76.65;101050.50;5066560;28;20029;-74
2023/06/18 03:22:38;;;;;;;22.13;11.45;;;;;;;16.69;75.86;101034.22;5048282;28;20143;-74
2023/06/18 03:25:05;;;;;;;24.25;11.05;;;;;;;16.70;76.68;101044.06;5059307;28;20082;-74
2023/06/18 03:27:31;;;;;;;23.38;11.77;;;;;;;16.69;77.45;101042.34;5063029;28;20058;-74
2023/06/18 03:29:56;;;;;;;21.98;11.40;;;;;;;16.66;77.57;101046.25;5061823;28;20021;-74
2023/06/18 03:32:21;;;;;;;22.92;12.10;;;;;;;16.66;77.02;101037.22;5058241;28;20064;-74
2023/06/18 03:34:48;;;;;;;22.50;11.70;;;;;;;16.66;76.67;101038.09;5060160;28;20035;-74
2023/06/18 03:37:14;;;;;;;20.83;10.65;;;;;;;16.65;77.97;101038.22;5062063;28;20021;-75
2023/06/18 03:39:40;;;;;;;22.50;11.45;;;;;;;16.65;76.22;101038.22;5066105;28;20055;-75
2023/06/18 03:42:05;;;;;;;24.08;12.20;;;;;;;16.65;76.65;101036.38;5068307;28;20036;-74
2023/06/18 03:44:31;;;;;;;23.52;12.63;;;;;;;16.65;76.67;101044.53;5062497;28;20426;-74
2023/06/18 03:46:56;;;;;;;23.08;11.90;;;;;;;16.65;78.63;101033.66;5073203;28;20024;-75
2023/06/18 03:49:21;;;;;;;26.73;12.20;;;;;;;16.65;78.38;101032.78;5065045;28;20372;-74
2023/06/18 03:51:47;;;;;;;24.33;12.40;;;;;;;16.65;78.23;101039.09;5073697;28;20048;-75
2023/06/18 03:54:12;;;;;;;23.60;12.68;;;;;;;16.64;77.85;101048.22;5062300;28;20051;-74
2023/06/18 03:56:37;;;;;;;27.73;13.38;;;;;;;16.63;77.84;101048.38;5073321;28;20035;-74
2023/06/18 03:59:02;;;;;;;23.58;13.13;;;;;;;16.60;78.63;101052.22;5060217;28;20138;-74
2023/06/18 04:01:28;;;;;;;25.05;12.20;;;;;;;16.62;78.54;101061.09;5064594;28;20040;-74
2023/06/18 04:03:53;;;;;;;22.80;11.35;;;;;;;16.64;77.89;101063.66;5052351;28;20048;-74
2023/06/18 04:06:18;;;;;;;22.70;12.65;;;;;;;16.64;78.54;101052.81;5066002;28;20037;-75
2023/06/18 04:08:44;;;;;;;23.35;12.05;;;;;;;16.67;79.58;101052.50;5066744;28;20037;-74
2023/06/18 04:11:09;;;;;;;23.98;12.43;;;;;;;16.68;77.18;101057.78;5067214;28;20029;-74
2023/06/18 04:13:35;;;;;;;24.45;12.85;;;;;;;16.70;77.54;101063.91;5060430;28;20536;-75
2023/06/18 04:16:01;;;;;;;22.45;12.20;;;;;;;16.71;79.90;101057.50;5069122;28;20104;-74
2023/06/18 04:18:27;;;;;;;23.20;12.50;;;;;;;16.72;80.40;101053.78;5072955;28;20456;-74
2023/06/18 04:20:52;;;;;;;25.67;12.05;;;;;;;16.70;80.98;101046.78;5068585;28;20066;-75
2023/06/18 04:23:20;;;;;;;22.35;12.20;;;;;;;16.71;78.31;101052.06;5053462;28;20130;-75
2023/06/18 04:25:45;;;;;;;23.42;12.10;;;;;;;16.72;77.93;101050.19;5069262;28;20035;-75
2023/06/18 04:28:10;;;;;;;24.00;11.55;;;;;;;16.75;80.88;101056.19;5059024;28;20033;-74
2023/06/18 04:30:35;;;;;;;22.25;11.82;;;;;;;16.77;80.98;101061.47;5070476;28;20032;-74
2023/06/18 04:33:01;;;;;;;20.90;11.43;;;;;;;16.75;81.02;101050.78;5075748;28;20074;-74
2023/06/18 04:35:26;;;;;;;29.20;12.63;;;;;;;16.77;82.03;101051.47;5071158;28;20029;-75
2023/06/18 04:37:52;;;;;;;24.30;12.90;;;;;;;16.78;80.50;101049.63;5065781;28;20134;-74
2023/06/18 04:40:18;;;;;;;24.05;12.75;;;;;;;16.80;80.18;101053.03;5057582;28;20017;-75
2023/06/18 04:42:43;;;;;;;23.63;12.00;;;;;;;16.81;78.93;101052.03;5065686;28;20024;-74
2023/06/18 04:45:09;;;;;;;22.10;11.40;;;;;;;16.86;81.37;101046.16;5059674;28;20121;-74
2023/06/18 04:47:35;;;;;;;23.38;13.73;;;;;;;16.88;80.45;101044.19;5064648;28;20044;-74
2023/06/18 04:50:02;;;;;;;22.15;12.23;;;;;;;16.90;80.14;101053.03;5070149;28;20055;-74
2023/06/18 04:52:27;;;;;;;24.25;13.05;;;;;;;16.91;81.06;101049.31;5064893;28;20143;-74
2023/06/18 04:54:53;;;;;;;23.50;13.32;;;;;;;16.95;77.91;101048.00;5071420;28;20412;-75
2023/06/18 04:57:19;;;;;;;28.90;13.15;;;;;;;16.98;79.56;101052.28;5057834;28;20060;-74
2023/06/18 04:59:45;;;;;;;23.05;13.63;;;;;;;17.02;79.40;101062.69;5062142;28;20036;-74
2023/06/18 05:02:10;;;;;;;23.77;13.23;;;;;;;17.07;79.21;101054.97;5055901;28;20468;-75
2023/06/18 05:04:35;;;;;;;23.05;13.25;;;;;;;17.14;80.16;101054.38;5067846;28;20541;-74
2023/06/18 05:07:01;;;;;;;28.05;14.20;;;;;;;17.17;79.27;101051.34;5072630;28;20033;-74
2023/06/18 05:09:27;;;;;;;24.75;13.55;;;;;;;17.20;79.83;101060.03;5065332;28;20056;-74
2023/06/18 05:11:52;;;;;;;26.85;12.55;;;;;;;17.25;80.17;101063.16;5053441;28;20040;-74
2023/06/18 05:14:18;;;;;;;23.30;12.50;;;;;;;17.29;80.95;101063.69;5056605;28;20017;-75
2023/06/18 05:16:43;;;;;;;25.02;14.15;;;;;;;17.34;80.93;101066.00;5067073;28;20036;-75
2023/06/18 05:19:08;;;;;;;24.13;13.55;;;;;;;17.40;82.03;101063.50;5064007;28;20168;-75
2023/06/18 05:21:33;;;;;;;25.27;15.27;;;;;;;17.47;76.39;101066.47;5060761;28;20039;-75
2023/06/18 05:23:59;;;;;;;24.58;13.88;;;;;;;17.55;78.65;101060.28;5066593;28;20056;-75
2023/06/18 05:26:25;;;;;;;27.80;13.57;;;;;;;17.63;71.79;101066.66;5074867;28;20037;-74
2023/06/18 05:28:50;;;;;;;25.08;13.68;;;;;;;17.75;68.78;101070.00;5055193;28;20032;-74
2023/06/18 05:31:16;;;;;;;26.63;14.27;;;;;;;17.88;67.01;101075.06;5066164;28;20247;-75
2023/06/18 05:33:41;;;;;;;25.02;14.00;;;;;;;18.00;66.33;101067.56;5060665;28;20436;-75
2023/06/18 05:36:06;;;;;;;22.75;12.40;;;;;;;18.13;65.74;101064.44;5055002;28;20163;-75
2023/06/18 05:38:32;;;;;;;23.17;13.20;;;;;;;18.24;64.26;101064.19;5051383;28;20032;-75
2023/06/18 05:40:57;;;;;;;25.17;15.48;;;;;;;18.36;64.63;101066.66;5063018;28;20016;-75
2023/06/18 05:43:23;;;;;;;22.35;12.80;;;;;;;18.45;68.20;101076.63;5058292;28;20044;-75
2023/06/18 05:45:48;;;;;;;23.77;13.35;;;;;;;18.54;67.52;101069.34;5061725;28;20047;-75
2023/06/18 05:48:14;;;;;;;23.75;12.63;;;;;;;18.63;64.74;101073.84;5058999;28;20029;-75
2023/06/18 05:50:40;;;;;;;22.75;12.13;;;;;;;18.72;63.84;101077.47;5056295;28;20029;-75
2023/06/18 05:53:06;;;;;;;23.00;11.13;;;;;;;18.81;63.55;101080.06;5060354;28;20476;-75
2023/06/18 05:55:31;;;;;;;23.58;11.32;;;;;;;18.86;63.98;101075.03;5053149;28;20060;-75
2023/06/18 05:57:56;;;;;;;23.45;11.60;;;;;;;18.95;60.08;101083.25;5052991;28;20040;-75
2023/06/18 06:00:21;;;;;;;21.98;11.43;;;;;;;19.01;62.52;101083.44;5064110;28;20075;-75
2023/06/18 06:02:47;;;;;;;26.38;12.13;;;;;;;19.09;61.66;101079.06;5061916;28;20028;-75
2023/06/18 06:05:12;;;;;;;21.00;10.70;;;;;;;19.18;59.85;101072.63;5060754;28;20095;-75
2023/06/18 06:07:37;;;;;;;21.52;10.40;;;;;;;19.26;60.99;101077.28;5058632;28;20062;-75
2023/06/18 06:10:03;;;;;;;22.15;10.35;;;;;;;19.33;60.57;101075.59;5047567;28;20063;-74
2023/06/18 06:12:28;;;;;;;19.20;9.13;;;;;;;19.38;58.84;101078.69;5049469;28;20063;-75
2023/06/18 06:14:54;;;;;;;19.17;8.02;;;;;;;19.42;60.50;101077.34;5056458;28;20064;-74
2023/06/18 06:17:19;;;;;;;19.42;7.63;;;;;;;19.49;57.24;101081.09;5059335;28;20426;-74
2023/06/18 06:19:45;;;;;;;18.67;7.97;;;;;;;19.55;57.58;101085.88;5067523;28;20029;-74
2023/06/18 06:22:10;;;;;;;18.98;7.88;;;;;;;19.64;54.79;101089.50;5066199;28;20102;-74
2023/06/18 06:24:35;;;;;;;20.77;8.68;;;;;;;19.67;55.05;101091.03;5060669;28;20071;-74
2023/06/18 06:27:01;;;;;;;18.70;7.53;;;;;;;19.72;56.95;101092.25;5063699;28;20067;-74
2023/06/18 06:29:26;;;;;;;18.88;7.13;;;;;;;19.74;56.59;101098.38;5075983;28;20369;-74
2023/06/18 06:31:52;;;;;;;17.83;7.53;;;;;;;19.76;55.79;101122.75;5072629;28;20143;-74
2023/06/18 06:34:17;;;;;;;18.70;7.85;;;;;;;19.83;54.96;101139.34;5072402;28;20021;-73
2023/06/18 06:36:43;;;;;;;23.75;8.18;;;;;;;19.83;55.56;101145.66;5058515;28;20111;-74
2023/06/18 06:39:08;;;;;;;18.13;7.25;;;;;;;19.87;56.58;101143.47;5070475;28;20025;-73
2023/06/18 06:41:34;;;;;;;20.85;8.68;;;;;;;19.87;56.61;101143.47;5073974;28;20032;-73
2023/06/18 06:43:59;;;;;;;21.98;8.95;;;;;;;19.89;55.88;101152.31;5065590;28;20053;-73
2023/06/18 06:46:25;;;;;;;19.23;9.43;;;;;;;19.93;57.96;101150.09;5067258;28;20024;-74
2023/06/18 06:48:50;;;;;;;20.23;8.93;;;;;;;19.93;57.52;101147.38;5072383;28;20035;-74
2023/06/18 06:51:15;;;;;;;20.27;10.05;;;;;;;19.96;59.36;101147.91;5075258;28;20080;-74
2023/06/18 06:53:40;;;;;;;23.85;9.23;;;;;;;19.99;57.93;101152.19;5068813;28;20128;-74
2023/06/18 06:56:06;;;;;;;21.58;9.77;;;;;;;20.02;58.80;101146.38;5067895;28;20116;-73
2023/06/18 06:58:31;;;;;;;24.63;10.27;;;;;;;20.06;56.73;101151.34;5052825;28;20033;-73
2023/06/18 07:00:56;;;;;;;21.55;10.73;;;;;;;20.11;58.01;101139.91;5073248;28;20039;-74
2023/06/18 07:03:22;;;;;;;21.92;10.70;;;;;;;20.17;57.89;101143.84;5069264;28;20033;-76
2023/06/18 07:05:47;;;;;;;20.58;9.73;;;;;;;20.22;57.75;101139.59;5073979;28;20111;-74
2023/06/18 07:08:12;;;;;;;23.20;11.57;;;;;;;20.28;56.25;101142.66;5075367;28;20448;-74
2023/06/18 07:10:37;;;;;;;21.77;10.77;;;;;;;20.31;57.30;101145.03;5064094;28;20322;-72
2023/06/18 07:13:03;;;;;;;22.17;11.57;;;;;;;20.35;56.81;101146.41;5057527;28;20029;-73
2023/06/18 07:15:28;;;;;;;22.17;11.57;;;;;;;20.38;57.79;101148.81;5061356;28;20024;-71
2023/06/18 07:17:53;;;;;;;24.38;11.23;;;;;;;20.43;55.74;101146.44;5065578;28;20492;-72
2023/06/18 07:20:19;;;;;;;20.77;10.70;;;;;;;20.46;57.34;101146.09;5072434;28;20036;-73
2023/06/18 07:22:44;;;;;;;23.35;12.00;;;;;;;20.50;57.54;101150.19;5058716;28;20065;-71
2023/06/18 07:25:10;;;;;;;23.98;11.98;;;;;;;20.52;56.17;101147.28;5059422;28;20410;-72
2023/06/18 07:27:35;;;;;;;21.25;11.48;;;;;;;20.55;57.39;101152.41;5065492;28;20035;-74
2023/06/18 07:30:01;;;;;;;22.73;12.23;;;;;;;20.57;60.87;101140.31;5071461;28;20040;-72
2023/06/18 07:32:26;;;;;;;25.58;11.80;;;;;;;20.60;58.90;101144.53;5050901;28;20031;-73
2023/06/18 07:34:51;;;;;;;22.40;10.85;;;;;;;20.66;58.87;101140.28;5073233;28;20027;-73
2023/06/18 07:37:17;;;;;;;22.15;11.00;;;;;;;20.67;57.34;101134.66;5051589;28;20017;-73
2023/06/18 07:39:42;;;;;;;21.40;11.18;;;;;;;20.72;58.28;101136.91;5060976;28;20049;-75
2023/06/18 07:42:07;;;;;;;21.08;10.90;;;;;;;20.75;57.62;101125.63;5061076;28;20109;-75
2023/06/18 07:44:33;;;;;;;21.08;11.30;;;;;;;20.83;57.80;101132.97;5073481;28;20028;-74
2023/06/18 07:46:58;;;;;;;22.40;11.25;;;;;;;20.90;56.96;101137.53;5065404;28;20396;-75
2023/06/18 07:49:24;;;;;;;22.17;12.57;;;;;;;20.92;57.08;101132.78;5072802;28;20076;-77
2023/06/18 07:51:49;;;;;;;21.50;11.70;;;;;;;21.01;59.79;101139.09;5061010;28;20029;-74
2023/06/18 07:54:15;;;;;;;22.88;12.32;;;;;;;21.06;59.18;101141.28;5045020;28;20021;-77
2023/06/18 07:56:40;;;;;;;21.88;11.40;;;;;;;21.11;57.68;101133.41;5065874;28;20033;-78
2023/06/18 07:59:05;;;;;;;21.65;11.68;;;;;;;21.17;58.88;101129.13;5052627;28;20056;-70
2023/06/18 08:01:32;;;;;;;22.33;11.57;;;;;;;21.23;59.26;101139.34;5060602;28;20066;-72
2023/06/18 08:03:57;;;;;;;23.95;11.65;;;;;;;21.23;58.38;101129.28;5045486;28;20119;-72
2023/06/18 08:06:22;;;;;;;21.05;10.15;;;;;;;21.26;59.64;101134.41;5055178;28;20056;-74
2023/06/18 08:08:48;;;;;;;19.73;10.75;;;;;;;21.27;59.44;101136.09;5065452;28;20621;-73
2023/06/18 08:11:14;;;;;;;22.77;10.48;;;;;;;21.28;59.46;101126.00;5063205;28;20086;-74
2023/06/18 08:13:39;;;;;;;20.70;10.80;;;;;;;21.35;60.71;101126.13;5058298;28;20057;-74
2023/06/18 08:16:05;;;;;;;19.98;9.82;;;;;;;21.36;59.24;101127.84;5065608;28;20047;-75
2023/06/18 08:18:30;;;;;;;22.05;10.73;;;;;;;21.41;59.54;101125.47;5060219;28;20093;-74
2023/06/18 08:20:56;;;;;;;20.70;9.95;;;;;;;21.45;60.51;101129.53;5051449;28;20028;-74
2023/06/18 08:23:21;;;;;;;20.25;10.80;;;;;;;21.50;59.33;101123.53;5062650;28;20043;-75
2023/06/18 08:25:47;;;;;;;20.60;9.18;;;;;;;21.51;60.35;101117.06;5067792;28;20048;-77
2023/06/18 08:28:12;;;;;;;18.15;9.15;;;;;;;21.55;59.01;101115.66;5064730;28;20024;-76
2023/06/18 08:30:37;;;;;;;19.77;10.68;;;;;;;21.57;58.63;101114.47;5063208;28;20508;-75
2023/06/18 08:33:03;;;;;;;19.92;10.30;;;;;;;21.57;58.44;101117.22;5049406;28;20112;-76
2023/06/18 08:35:28;;;;;;;22.13;10.27;;;;;;;21.57;58.63;101109.00;5064449;28;20115;-75
2023/06/18 08:37:53;;;;;;;21.08;10.88;;;;;;;21.59;59.70;101112.41;5075852;28;20031;-81
2023/06/18 08:40:24;;;;;;;21.42;10.75;;;;;;;21.59;58.60;101112.41;5058184;28;20390;-76
2023/06/18 08:42:49;;;;;;;19.60;10.32;;;;;;;21.59;63.88;101106.94;5065203;28;20107;-76
2023/06/18 08:45:14;;;;;;;21.48;9.68;;;;;;;21.60;63.80;101118.75;5054079;28;20060;-75
2023/06/18 08:47:43;;;;;;;18.23;9.25;;;;;;;21.58;62.80;101118.03;5049760;28;20036;-74
2023/06/18 08:50:09;;;;;;;23.00;10.83;;;;;;;21.57;61.14;101116.38;5070524;28;20024;-73
2023/06/18 08:52:38;;;;;;;19.15;9.82;;;;;;;21.56;60.70;101118.22;5055906;28;20025;-76
2023/06/18 08:55:06;;;;;;;;;;;;;;;21.58;61.96;101116.19;5056578;28;20024;-76
2023/06/18 08:57:43;;;;;;;21.02;10.90;;;;;;;21.58;60.49;101116.19;5056588;28;19935;-80
2023/06/18 09:00:09;;;;;;;25.45;10.88;;;;;;;21.55;62.79;101112.94;5046530;28;21123;-78
2023/06/18 09:02:35;;;;;;;22.75;10.82;;;;;;;21.57;64.47;101114.47;5059473;28;20032;-77
2023/06/18 09:05:05;;;;;;;25.70;10.77;;;;;;;21.57;65.22;101119.09;5059412;28;21430;-73
2023/06/18 09:07:31;;;;;;;20.35;10.25;;;;;;;21.57;64.16;101113.63;5046438;28;20057;-75
2023/06/18 09:09:56;;;;;;;21.20;10.57;;;;;;;21.57;61.83;101113.63;5045541;28;20159;-75
2023/06/18 09:12:21;;;;;;;24.90;11.05;;;;;;;21.59;60.70;101123.34;5062043;28;20041;-74
2023/06/18 09:14:47;;;;;;;405.63;63.63;;;;;;;21.61;67.77;101120.41;5051747;28;20110;-72
2023/06/18 09:17:13;;;;;;;24.67;11.88;;;;;;;21.61;61.01;101121.28;5049224;28;20033;-74
2023/06/18 09:19:39;;;;;;;21.10;10.40;;;;;;;21.63;64.07;101121.97;5061091;28;20091;-75
2023/06/18 09:22:20;;;;;;;20.67;11.30;;;;;;;21.67;65.03;101122.47;5059008;28;20048;-76
2023/06/18 09:24:45;;;;;;;23.30;10.93;;;;;;;21.67;66.36;101114.25;5047895;28;20064;-74
2023/06/18 09:27:11;;;;;;;20.48;10.35;;;;;;;21.66;64.52;101120.75;5041752;28;20108;-74
2023/06/18 09:29:38;;;;;;;20.90;9.55;;;;;;;21.69;65.41;101119.56;5047086;28;20032;-73
2023/06/18 09:32:07;;;;;;;20.02;10.48;;;;;;;21.69;62.33;101120.38;5052534;28;20026;-72
2023/06/18 09:34:32;;;;;;;21.63;10.45;;;;;;;21.70;65.87;101126.69;5053835;28;20116;-73
2023/06/18 09:36:58;;;;;;;20.27;10.00;;;;;;;21.70;62.20;101127.56;5043060;28;20509;-73
2023/06/18 09:39:25;;;;;;;21.58;10.45;;;;;;;21.68;62.84;101121.41;5050510;28;20048;-73
2023/06/18 09:41:52;;;;;;;22.20;10.25;;;;;;;21.68;66.76;101123.31;5068003;28;20496;-72
2023/06/18 09:44:20;;;;;;;22.73;10.20;;;;;;;21.65;63.78;101121.78;5060683;28;20028;-73
2023/06/18 09:46:47;;;;;;;22.10;11.15;;;;;;;21.64;65.58;101120.94;5055681;28;20020;-74
2023/06/18 09:49:16;;;;;;;21.23;10.80;;;;;;;21.63;71.59;101123.84;5042490;28;20028;-73
2023/06/18 09:51:41;;;;;;;20.60;11.00;;;;;;;21.58;73.48;101118.91;5044727;28;20031;-75
2023/06/18 09:54:08;;;;;;;20.08;10.98;;;;;;;21.56;76.60;101120.97;5057777;28;20469;-77
2023/06/18 09:56:33;;;;;;;21.38;11.77;;;;;;;21.53;68.99;101115.84;5053047;28;20423;-77
2023/06/18 09:58:59;;;;;;;22.17;12.20;;;;;;;21.52;80.92;101113.28;5063467;28;20029;-77
2023/06/18 10:01:27;;;;;;;21.63;12.05;;;;;;;21.48;80.97;101116.34;5058757;28;20025;-76
2023/06/18 10:03:52;;;;;;;23.73;13.68;;;;;;;21.44;81.24;101115.00;5057188;28;20114;-76
2023/06/18 10:06:20;;;;;;;24.55;11.43;;;;;;;21.40;80.16;101101.88;5059933;28;20706;-76
2023/06/18 10:08:50;;;;;;;21.30;13.02;;;;;;;21.39;83.55;101101.03;5040637;28;20128;-76
2023/06/18 10:11:18;;;;;;;20.88;12.27;;;;;;;21.36;83.68;101100.50;5048798;28;20024;-76
2023/06/18 10:13:49;;;;;;;21.77;12.93;;;;;;;21.36;81.34;101101.34;5052904;28;20028;-76
2023/06/18 10:16:18;;;;;;;23.30;12.45;;;;;;;21.38;84.44;101090.28;5061646;28;20020;-75
2023/06/18 10:19:05;;;;;;;21.77;12.38;;;;;;;21.38;84.95;101088.38;5071836;28;20024;-75
2023/06/18 10:21:33;;;;;;;22.05;12.93;;;;;;;21.35;85.62;101080.53;5059394;28;20029;-78
2023/06/18 10:24:06;;;;;;;20.95;11.52;;;;;;;21.36;86.32;101070.44;5059397;28;20389;-77
2023/06/18 10:26:36;;;;;;;22.38;12.43;;;;;;;21.37;87.38;101069.41;5052607;28;20363;-78
2023/06/18 10:29:05;;;;;;;23.48;11.75;;;;;;;21.37;82.58;101074.88;5048308;28;20493;-76
2023/06/18 10:31:30;;;;;;;20.73;11.57;;;;;;;21.43;82.35;101068.69;5042860;28;20437;-76
2023/06/18 10:33:56;;;;;;;20.98;11.77;;;;;;;21.45;79.15;101067.50;5037205;28;20363;-76
2023/06/18 10:36:23;;;;;;;21.10;11.88;;;;;;;21.51;76.61;101065.97;5037110;28;20038;-76
2023/06/18 10:38:52;;;;;;;21.83;11.00;;;;;;;21.55;79.85;101071.91;5042966;28;20456;-75
2023/06/18 10:41:19;;;;;;;28.08;12.32;;;;;;;21.60;76.47;101066.78;5045983;28;20506;-76
2023/06/18 10:43:50;;;;;;;21.35;11.73;;;;;;;21.66;78.79;101076.16;5041205;28;20040;-76
2023/06/18 10:46:16;;;;;;;23.50;12.95;;;;;;;21.69;76.97;101067.56;5043865;28;20032;-76
2023/06/18 10:49:17;;;;;;;21.10;11.88;;;;;;;21.74;74.35;101071.47;5041865;28;20017;-76
2023/06/18 10:51:57;;;;;;;21.00;11.52;;;;;;;21.79;78.05;101062.72;5044912;28;20476;-73
2023/06/18 10:54:33;;;;;;;21.63;12.07;;;;;;;21.83;79.61;101069.50;5042719;28;20037;-73
2023/06/18 10:56:59;;;;;;;21.17;12.32;;;;;;;21.85;77.39;101067.47;5041600;28;20880;-73
2023/06/18 10:59:46;;;;;;;21.17;11.38;;;;;;;21.87;74.34;101065.38;5041955;28;20036;-74
2023/06/18 11:02:13;;;;;;;21.25;11.90;;;;;;;21.91;76.48;101063.16;5043390;28;20037;-75
2023/06/18 11:04:38;;;;;;;23.85;12.20;;;;;;;21.93;76.03;101064.69;5047250;28;20037;-76
2023/06/18 11:07:14;;;;;;;22.58;12.10;;;;;;;21.98;77.20;101054.03;5040637;28;20057;-76
2023/06/18 11:09:46;;;;;;;29.75;13.88;;;;;;;22.04;83.31;101046.13;5041314;28;20029;-75